Casablanca/Mohammed V International Airport

Airport
ICAO code: 
GMMN
IATA Code: 
CMN
Summary
ICAO Region: 
AFI
Territory: 
Location: 
Casablanca, Grand Casablanca
Serving: 
Casablanca
Elevation: 
656 ft
Coordinates: 
Aerial View: 
33° 22' 4.016" N, 7° 35' 31.918" W
Metar
Observation
GMMN 270800Z 22005KT 7000 NCD 06/06 Q1016 NOSIG
Station
Nouasseur
Date/Time
2021-11-27 08:00:00
Wind direction
220°
Wind speed
05 kts
Lowest cloud amount
no clouds detected
Temperature
6°C
Dew point
6°C
Humidity
100%
QNH
1016 hPa
Weather condition
n/a

International airport serving Casablanca.

Climatology

Warm mediterranean climate (Köppen climate classification Csa)

Runways

Designator Length Width Surface Rops
17L/35R 3720 45 ASP Yes/Yes
17R/35L 3720 45 ASP Yes/Yes
Airport map: 
Aerial View: 

Accidents and Serious Incidents at or in the vicinity of GMMN

SKYbrary Partners:

Safety knowledge contributed by: